Terminal Aerodrome Forecast
Issued by NWS Corpus Christi, TX

Home | Current Version | Previous Version | Text Only | Print | Product List | Glossary On
Versions: 1 2 3 4 5 6 7 8 9 10 11 12 13 14 15 16 17 18
000
FTUS44 KCRP 210500
TAFCRP
TAF
KCRP 210533Z 2106/2206 07006KT P6SM FEW018
      TEMPO 2111/2114 6SM BR MIFG FEW001
     FM211400 07012KT P6SM SCT025 SCT150
     FM211800 08014KT P6SM SCT035 SCT150
     FM220100 09007KT P6SM FEW018=

USA.gov is the U.S. government's official web portal to all federal, state and local government web resources and services.